PWSweather.com
Personal Weather Stations
Station Observations
WD4JKH
Forsyth, GA 31029

Forsyth, GA 31029

Lat: 33.033225, Lon: -83.927995

Elevation: 709

Station Type: Davis Vantage VUE

High Low Average
Temperature 71.8°F22.1°C 49.7°F9.8°C 61.9°F16.6°C
Dew Point 56.4°F13.6°C 41.1°F5.1°C 48.1°F8.9°C
Winds 9.1 mph 14.6 kmh Calm Calm 2.0 mph SE3.2 kmh SE
Wind Gusts 22.0 mph35.4 kmh -- 7.0 mph11.3 kmh
Humidity 93% 40% 63%
Pressure 30.35 in1027.8 mb 30.17 in1021.7 mb -
Precipitation 0.07 in1.8 mm - -
Hour Temp Dew Point Humidity Winds Wind Gusts Pressure Precip Precip Rate Daily Precip Total
12:03 AM 58.9°F14.9°C 41.3°F5.2°C 52% 1.0 mph SE1.6 kmh SE 3.0 mph4.8 kmh 30.33 in1027.1 mb 0.00 in0.0 mm 0.00 in0.0 mm 0.00 in0.0 mm
12:08 AM 58.8°F14.9°C 41.2°F5.1°C 52% 1.0 mph SE1.6 kmh SE 2.0 mph3.2 kmh 30.33 in1027.1 mb 0.00 in0.0 mm 0.00 in0.0 mm 0.00 in0.0 mm
12:13 AM 58.7°F14.8°C 41.1°F5.1°C 52% 1.4 mph SSE2.3 kmh SSE 2.0 mph3.2 kmh 30.33 in1027.1 mb 0.00 in0.0 mm 0.00 in0.0 mm 0.00 in0.0 mm
12:18 AM 58.7°F14.8°C 41.7°F5.4°C 53% 1.4 mph SSE2.3 kmh SSE 2.0 mph3.2 kmh 30.33 in1027.1 mb 0.00 in0.0 mm 0.00 in0.0 mm 0.00 in0.0 mm
12:23 AM 58.7°F14.8°C 41.7°F5.4°C 53% 1.6 mph SE2.6 kmh SE 5.0 mph8.0 kmh 30.33 in1027.1 mb 0.00 in0.0 mm 0.00 in0.0 mm 0.00 in0.0 mm
12:28 AM 58.7°F14.8°C 41.7°F5.4°C 53% 1.4 mph SSE2.3 kmh SSE 5.0 mph8.0 kmh 30.33 in1027.1 mb 0.00 in0.0 mm 0.00 in0.0 mm 0.00 in0.0 mm
12:33 AM 58.7°F14.8°C 41.7°F5.4°C 53% 1.0 mph SE1.6 kmh SE 5.0 mph8.0 kmh 30.33 in1027.1 mb 0.00 in0.0 mm 0.00 in0.0 mm 0.00 in0.0 mm
12:38 AM 58.5°F14.7°C 42.0°F5.6°C 54% 1.6 mph SE2.6 kmh SE 5.0 mph8.0 kmh 30.33 in1027.1 mb 0.00 in0.0 mm 0.00 in0.0 mm 0.00 in0.0 mm
12:43 AM 58.5°F14.7°C 42.0°F5.6°C 54% 1.6 mph SW2.6 kmh SW 5.0 mph8.0 kmh 30.33 in1027.1 mb 0.00 in0.0 mm 0.00 in0.0 mm 0.00 in0.0 mm
12:48 AM 58.4°F14.7°C 41.9°F5.5°C 54% Calm Calm 4.0 mph6.4 kmh 30.34 in1027.4 mb 0.00 in0.0 mm 0.00 in0.0 mm 0.00 in0.0 mm
12:53 AM 58.3°F14.6°C 41.8°F5.4°C 54% 1.7 mph S2.7 kmh S 4.0 mph6.4 kmh 30.33 in1027.1 mb 0.00 in0.0 mm 0.00 in0.0 mm 0.00 in0.0 mm
12:57 AM 58.1°F14.5°C 42.0°F5.6°C 55% 1.7 mph S2.7 kmh S 4.0 mph6.4 kmh 30.33 in1027.1 mb 0.00 in0.0 mm 0.00 in0.0 mm 0.00 in0.0 mm
01:02 AM 58.0°F14.4°C 41.9°F5.5°C 55% 1.0 mph SE1.6 kmh SE 3.0 mph4.8 kmh 30.33 in1027.1 mb 0.00 in0.0 mm 0.00 in0.0 mm 0.00 in0.0 mm
01:07 AM 57.9°F14.4°C 41.9°F5.5°C 55% Calm Calm 3.0 mph4.8 kmh 30.33 in1027.1 mb 0.00 in0.0 mm 0.00 in0.0 mm 0.00 in0.0 mm
01:12 AM 57.7°F14.3°C 42.2°F5.7°C 56% Calm Calm 3.0 mph4.8 kmh 30.33 in1027.1 mb 0.00 in0.0 mm 0.00 in0.0 mm 0.00 in0.0 mm
01:17 AM 57.5°F14.2°C 42.0°F5.6°C 56% 1.0 mph SE1.6 kmh SE 1.0 mph1.6 kmh 30.33 in1027.1 mb 0.00 in0.0 mm 0.00 in0.0 mm 0.00 in0.0 mm
01:22 AM 57.4°F14.1°C 41.9°F5.5°C 56% 1.3 mph SE2.1 kmh SE 2.0 mph3.2 kmh 30.33 in1027.1 mb 0.00 in0.0 mm 0.00 in0.0 mm 0.00 in0.0 mm
01:27 AM 57.3°F14.1°C 42.3°F5.7°C 57% Calm Calm 2.0 mph3.2 kmh 30.33 in1027.1 mb 0.00 in0.0 mm 0.00 in0.0 mm 0.00 in0.0 mm
01:32 AM 57.3°F14.1°C 42.3°F5.7°C 57% 1.0 mph SW1.6 kmh SW 2.0 mph3.2 kmh 30.33 in1027.1 mb 0.00 in0.0 mm 0.00 in0.0 mm 0.00 in0.0 mm
01:37 AM 57.3°F14.1°C 42.3°F5.7°C 57% 2.0 mph SE3.2 kmh SE 5.0 mph8.0 kmh 30.33 in1027.1 mb 0.00 in0.0 mm 0.00 in0.0 mm 0.00 in0.0 mm
01:42 AM 57.3°F14.1°C 42.3°F5.7°C 57% 1.3 mph SSE2.1 kmh SSE 5.0 mph8.0 kmh 30.33 in1027.1 mb 0.00 in0.0 mm 0.00 in0.0 mm 0.00 in0.0 mm
01:47 AM 57.3°F14.1°C 42.3°F5.7°C 57% 1.0 mph SSE1.6 kmh SSE 5.0 mph8.0 kmh 30.33 in1027.1 mb 0.00 in0.0 mm 0.00 in0.0 mm 0.00 in0.0 mm
01:52 AM 57.2°F14.0°C 42.5°F5.8°C 58% 1.0 mph SE1.6 kmh SE 5.0 mph8.0 kmh 30.33 in1027.1 mb 0.00 in0.0 mm 0.00 in0.0 mm 0.00 in0.0 mm
01:57 AM 57.1°F13.9°C 42.6°F5.9°C 58% 1.9 mph SSE3.1 kmh SSE 5.0 mph8.0 kmh 30.33 in1027.1 mb 0.00 in0.0 mm 0.00 in0.0 mm 0.00 in0.0 mm
02:02 AM 57.1°F13.9°C 42.6°F5.9°C 58% 2.7 mph SSE4.3 kmh SSE 7.0 mph11.3 kmh 30.32 in1026.8 mb 0.00 in0.0 mm 0.00 in0.0 mm 0.00 in0.0 mm
02:07 AM 57.0°F13.9°C 42.9°F6.1°C 59% 1.6 mph SE2.6 kmh SE 7.0 mph11.3 kmh 30.32 in1026.8 mb 0.00 in0.0 mm 0.00 in0.0 mm 0.00 in0.0 mm
02:12 AM 56.8°F13.8°C 42.7°F5.9°C 59% 2.6 mph SE4.2 kmh SE 7.0 mph11.3 kmh 30.32 in1026.8 mb 0.00 in0.0 mm 0.00 in0.0 mm 0.00 in0.0 mm
02:17 AM 56.6°F13.7°C 43.0°F6.1°C 60% 1.7 mph SE2.7 kmh SE 7.0 mph11.3 kmh 30.32 in1026.8 mb 0.00 in0.0 mm 0.00 in0.0 mm 0.00 in0.0 mm
02:22 AM 56.4°F13.6°C 43.2°F6.2°C 61% 3.1 mph S5.0 kmh S 6.0 mph9.7 kmh 30.32 in1026.8 mb 0.00 in0.0 mm 0.00 in0.0 mm 0.00 in0.0 mm
02:27 AM 56.1°F13.4°C 43.4°F6.3°C 62% 1.7 mph S2.7 kmh S 6.0 mph9.7 kmh 30.32 in1026.8 mb 0.00 in0.0 mm 0.00 in0.0 mm 0.00 in0.0 mm
02:32 AM 55.8°F13.2°C 43.5°F6.4°C 63% 2.2 mph S3.5 kmh S 6.0 mph9.7 kmh 30.32 in1026.8 mb 0.00 in0.0 mm 0.00 in0.0 mm 0.00 in0.0 mm
02:37 AM 55.5°F13.1°C 43.6°F6.4°C 64% 1.0 mph SSE1.6 kmh SSE 6.0 mph9.7 kmh 30.32 in1026.8 mb 0.00 in0.0 mm 0.00 in0.0 mm 0.00 in0.0 mm
02:42 AM 55.2°F12.9°C 43.6°F6.4°C 65% 1.1 mph S1.8 kmh S 4.0 mph6.4 kmh 30.32 in1026.8 mb 0.00 in0.0 mm 0.00 in0.0 mm 0.00 in0.0 mm
02:48 AM 54.9°F12.7°C 43.5°F6.4°C 65% 1.0 mph SE1.6 kmh SE 4.0 mph6.4 kmh 30.32 in1026.8 mb 0.00 in0.0 mm 0.00 in0.0 mm 0.00 in0.0 mm
02:52 AM 54.5°F12.5°C 43.5°F6.4°C 66% Calm Calm 2.0 mph3.2 kmh 30.32 in1026.8 mb 0.00 in0.0 mm 0.00 in0.0 mm 0.00 in0.0 mm
02:58 AM 54.1°F12.3°C 43.5°F6.4°C 67% Calm Calm 2.0 mph3.2 kmh 30.32 in1026.8 mb 0.00 in0.0 mm 0.00 in0.0 mm 0.00 in0.0 mm
03:02 AM 53.8°F12.1°C 43.6°F6.4°C 68% 1.0 mph SSW1.6 kmh SSW 2.0 mph3.2 kmh 30.32 in1026.8 mb 0.00 in0.0 mm 0.00 in0.0 mm 0.00 in0.0 mm
03:08 AM 53.4°F11.9°C 43.2°F6.2°C 68% Calm Calm 2.0 mph3.2 kmh 30.33 in1027.1 mb 0.00 in0.0 mm 0.00 in0.0 mm 0.00 in0.0 mm
03:13 AM 53.0°F11.7°C 43.2°F6.2°C 69% Calm Calm 2.0 mph3.2 kmh 30.32 in1026.8 mb 0.00 in0.0 mm 0.00 in0.0 mm 0.00 in0.0 mm
03:18 AM 52.6°F11.4°C 43.2°F6.2°C 70% Calm Calm 1.0 mph1.6 kmh 30.32 in1026.8 mb 0.00 in0.0 mm 0.00 in0.0 mm 0.00 in0.0 mm
03:23 AM 52.3°F11.3°C 43.2°F6.2°C 71% Calm Calm 1.0 mph1.6 kmh 30.32 in1026.8 mb 0.00 in0.0 mm 0.00 in0.0 mm 0.00 in0.0 mm
03:28 AM 52.1°F11.2°C 43.4°F6.3°C 72% Calm Calm -- 30.33 in1027.1 mb 0.00 in0.0 mm 0.00 in0.0 mm 0.00 in0.0 mm
03:33 AM 51.8°F11.0°C 43.2°F6.2°C 72% 1.0 mph SW1.6 kmh SW 1.0 mph1.6 kmh 30.33 in1027.1 mb 0.00 in0.0 mm 0.00 in0.0 mm 0.00 in0.0 mm
03:38 AM 51.6°F10.9°C 43.0°F6.1°C 72% 1.0 mph SE1.6 kmh SE 1.0 mph1.6 kmh 30.33 in1027.1 mb 0.00 in0.0 mm 0.00 in0.0 mm 0.00 in0.0 mm
03:43 AM 51.5°F10.8°C 43.2°F6.2°C 73% Calm Calm 1.0 mph1.6 kmh 30.33 in1027.1 mb 0.00 in0.0 mm 0.00 in0.0 mm 0.00 in0.0 mm
03:48 AM 51.4°F10.8°C 43.5°F6.4°C 74% Calm Calm 1.0 mph1.6 kmh 30.33 in1027.1 mb 0.00 in0.0 mm 0.00 in0.0 mm 0.00 in0.0 mm
03:53 AM 51.4°F10.8°C 43.5°F6.4°C 74% Calm Calm 1.0 mph1.6 kmh 30.33 in1027.1 mb 0.00 in0.0 mm 0.00 in0.0 mm 0.00 in0.0 mm
03:58 AM 51.3°F10.7°C 43.7°F6.5°C 75% 1.0 mph SSE1.6 kmh SSE 1.0 mph1.6 kmh 30.33 in1027.1 mb 0.00 in0.0 mm 0.00 in0.0 mm 0.00 in0.0 mm
04:03 AM 51.3°F10.7°C 43.6°F6.4°C 75% Calm Calm 1.0 mph1.6 kmh 30.33 in1027.1 mb 0.00 in0.0 mm 0.00 in0.0 mm 0.00 in0.0 mm
04:08 AM 51.3°F10.7°C 43.6°F6.4°C 75% 1.0 mph SSE1.6 kmh SSE 1.0 mph1.6 kmh 30.33 in1027.1 mb 0.00 in0.0 mm 0.00 in0.0 mm 0.00 in0.0 mm
04:13 AM 51.3°F10.7°C 43.7°F6.5°C 75% Calm Calm 1.0 mph1.6 kmh 30.33 in1027.1 mb 0.00 in0.0 mm 0.00 in0.0 mm 0.00 in0.0 mm
04:18 AM 51.2°F10.7°C 44.0°F6.7°C 76% Calm Calm 1.0 mph1.6 kmh 30.33 in1027.1 mb 0.00 in0.0 mm 0.00 in0.0 mm 0.00 in0.0 mm
04:23 AM 51.1°F10.6°C 43.9°F6.6°C 76% 1.0 mph SSE1.6 kmh SSE 1.0 mph1.6 kmh 30.33 in1027.1 mb 0.00 in0.0 mm 0.00 in0.0 mm 0.00 in0.0 mm
04:28 AM 51.0°F10.6°C 43.8°F6.6°C 76% Calm Calm 1.0 mph1.6 kmh 30.33 in1027.1 mb 0.00 in0.0 mm 0.00 in0.0 mm 0.00 in0.0 mm
04:33 AM 50.8°F10.4°C 43.8°F6.6°C 77% Calm Calm 1.0 mph1.6 kmh 30.33 in1027.1 mb 0.00 in0.0 mm 0.00 in0.0 mm 0.00 in0.0 mm
04:38 AM 50.7°F10.4°C 43.8°F6.6°C 77% Calm Calm 1.0 mph1.6 kmh 30.33 in1027.1 mb 0.00 in0.0 mm 0.00 in0.0 mm 0.00 in0.0 mm
04:43 AM 50.6°F10.3°C 43.7°F6.5°C 77% Calm Calm -- 30.33 in1027.1 mb 0.00 in0.0 mm 0.00 in0.0 mm 0.00 in0.0 mm
04:48 AM 50.4°F10.2°C 43.9°F6.6°C 78% Calm Calm -- 30.34 in1027.4 mb 0.00 in0.0 mm 0.00 in0.0 mm 0.00 in0.0 mm
04:53 AM 50.3°F10.2°C 43.8°F6.6°C 78% Calm Calm -- 30.34 in1027.4 mb 0.00 in0.0 mm 0.00 in0.0 mm 0.00 in0.0 mm
04:58 AM 50.1°F10.1°C 43.9°F6.6°C 79% Calm Calm -- 30.34 in1027.4 mb 0.00 in0.0 mm 0.00 in0.0 mm 0.00 in0.0 mm
05:03 AM 49.8°F9.9°C 43.6°F6.4°C 79% Calm Calm -- 30.34 in1027.4 mb 0.00 in0.0 mm 0.00 in0.0 mm 0.00 in0.0 mm
05:08 AM 49.7°F9.8°C 43.5°F6.4°C 79% Calm Calm -- 30.34 in1027.4 mb 0.00 in0.0 mm 0.00 in0.0 mm 0.00 in0.0 mm
05:13 AM 49.7°F9.8°C 43.8°F6.6°C 80% Calm Calm 1.0 mph1.6 kmh 30.34 in1027.4 mb 0.00 in0.0 mm 0.00 in0.0 mm 0.00 in0.0 mm
05:18 AM 49.9°F9.9°C 44.0°F6.7°C 80% 1.1 mph SE1.8 kmh SE 2.0 mph3.2 kmh 30.34 in1027.4 mb 0.00 in0.0 mm 0.00 in0.0 mm 0.00 in0.0 mm
05:23 AM 50.3°F10.2°C 44.4°F6.9°C 80% 1.7 mph SE2.7 kmh SE 3.0 mph4.8 kmh 30.34 in1027.4 mb 0.00 in0.0 mm 0.00 in0.0 mm 0.00 in0.0 mm
05:28 AM 50.5°F10.3°C 44.3°F6.8°C 79% 1.7 mph SE2.7 kmh SE 3.0 mph4.8 kmh 30.34 in1027.4 mb 0.00 in0.0 mm 0.00 in0.0 mm 0.00 in0.0 mm
05:33 AM 50.5°F10.3°C 44.3°F6.8°C 79% 2.0 mph SE3.2 kmh SE 4.0 mph6.4 kmh 30.33 in1027.1 mb 0.00 in0.0 mm 0.00 in0.0 mm 0.00 in0.0 mm
05:38 AM 50.4°F10.2°C 44.2°F6.8°C 79% 1.6 mph SE2.6 kmh SE 4.0 mph6.4 kmh 30.34 in1027.4 mb 0.00 in0.0 mm 0.00 in0.0 mm 0.00 in0.0 mm
05:43 AM 50.3°F10.2°C 44.1°F6.7°C 79% 1.3 mph SE2.1 kmh SE 4.0 mph6.4 kmh 30.33 in1027.1 mb 0.00 in0.0 mm 0.00 in0.0 mm 0.00 in0.0 mm
05:48 AM 50.3°F10.2°C 44.4°F6.9°C 80% Calm Calm 4.0 mph6.4 kmh 30.34 in1027.4 mb 0.00 in0.0 mm 0.00 in0.0 mm 0.00 in0.0 mm
05:53 AM 50.2°F10.1°C 44.3°F6.8°C 80% 1.0 mph SE1.6 kmh SE 3.0 mph4.8 kmh 30.34 in1027.4 mb 0.00 in0.0 mm 0.00 in0.0 mm 0.00 in0.0 mm
05:58 AM 50.1°F10.1°C 44.5°F6.9°C 81% 1.0 mph SE1.6 kmh SE 2.0 mph3.2 kmh 30.34 in1027.4 mb 0.00 in0.0 mm 0.00 in0.0 mm 0.00 in0.0 mm
06:03 AM 49.9°F9.9°C 44.3°F6.8°C 81% Calm Calm 1.0 mph1.6 kmh 30.34 in1027.4 mb 0.00 in0.0 mm 0.00 in0.0 mm 0.00 in0.0 mm
06:08 AM 49.8°F9.9°C 44.5°F6.9°C 82% 1.4 mph SE2.3 kmh SE 2.0 mph3.2 kmh 30.34 in1027.4 mb 0.00 in0.0 mm 0.00 in0.0 mm 0.00 in0.0 mm
06:13 AM 50.0°F10.0°C 44.4°F6.9°C 81% 1.3 mph SE2.1 kmh SE 3.0 mph4.8 kmh 30.34 in1027.4 mb 0.00 in0.0 mm 0.00 in0.0 mm 0.00 in0.0 mm
06:18 AM 49.9°F9.9°C 44.3°F6.8°C 81% 1.7 mph SE2.7 kmh SE 4.0 mph6.4 kmh 30.34 in1027.4 mb 0.00 in0.0 mm 0.00 in0.0 mm 0.00 in0.0 mm
06:23 AM 49.9°F9.9°C 44.3°F6.8°C 81% 1.5 mph SE2.4 kmh SE 4.0 mph6.4 kmh 30.34 in1027.4 mb 0.00 in0.0 mm 0.00 in0.0 mm 0.00 in0.0 mm
06:28 AM 49.7°F9.8°C 44.4°F6.9°C 82% 1.2 mph SE1.9 kmh SE 4.0 mph6.4 kmh 30.34 in1027.4 mb 0.00 in0.0 mm 0.00 in0.0 mm 0.00 in0.0 mm
06:33 AM 49.7°F9.8°C 44.4°F6.9°C 82% 1.7 mph SE2.7 kmh SE 4.0 mph6.4 kmh 30.34 in1027.4 mb 0.00 in0.0 mm 0.00 in0.0 mm 0.00 in0.0 mm
06:38 AM 49.9°F9.9°C 44.6°F7.0°C 82% 1.7 mph SE2.7 kmh SE 3.0 mph4.8 kmh 30.34 in1027.4 mb 0.00 in0.0 mm 0.00 in0.0 mm 0.00 in0.0 mm
06:43 AM 50.3°F10.2°C 45.0°F7.2°C 82% 1.6 mph ESE2.6 kmh ESE 3.0 mph4.8 kmh 30.34 in1027.4 mb 0.00 in0.0 mm 0.00 in0.0 mm 0.00 in0.0 mm
06:48 AM 50.5°F10.3°C 44.9°F7.2°C 81% 1.6 mph SE2.6 kmh SE 3.0 mph4.8 kmh 30.33 in1027.1 mb 0.00 in0.0 mm 0.00 in0.0 mm 0.00 in0.0 mm
06:53 AM 50.6°F10.3°C 44.7°F7.1°C 80% 1.5 mph ESE2.4 kmh ESE 4.0 mph6.4 kmh 30.33 in1027.1 mb 0.00 in0.0 mm 0.00 in0.0 mm 0.00 in0.0 mm
06:57 AM 50.9°F10.5°C 45.0°F7.2°C 80% 1.5 mph SE2.4 kmh SE 4.0 mph6.4 kmh 30.33 in1027.1 mb 0.00 in0.0 mm 0.00 in0.0 mm 0.00 in0.0 mm
07:02 AM 51.3°F10.7°C 45.0°F7.2°C 79% 1.0 mph ESE1.6 kmh ESE 4.0 mph6.4 kmh 30.34 in1027.4 mb 0.00 in0.0 mm 0.00 in0.0 mm 0.00 in0.0 mm
07:07 AM 51.4°F10.8°C 45.2°F7.3°C 79% 1.5 mph ESE2.4 kmh ESE 4.0 mph6.4 kmh 30.34 in1027.4 mb 0.00 in0.0 mm 0.00 in0.0 mm 0.00 in0.0 mm
07:12 AM 51.6°F10.9°C 45.3°F7.4°C 79% 1.2 mph SE1.9 kmh SE 3.0 mph4.8 kmh 30.34 in1027.4 mb 0.00 in0.0 mm 0.00 in0.0 mm 0.00 in0.0 mm
07:17 AM 52.1°F11.2°C 45.5°F7.5°C 78% 1.0 mph SE1.6 kmh SE 3.0 mph4.8 kmh 30.34 in1027.4 mb 0.00 in0.0 mm 0.00 in0.0 mm 0.00 in0.0 mm
07:22 AM 52.2°F11.2°C 45.3°F7.4°C 77% 1.7 mph ESE2.7 kmh ESE 3.0 mph4.8 kmh 30.34 in1027.4 mb 0.00 in0.0 mm 0.00 in0.0 mm 0.00 in0.0 mm
07:27 AM 52.5°F11.4°C 45.9°F7.7°C 78% 1.5 mph ESE2.4 kmh ESE 3.0 mph4.8 kmh 30.34 in1027.4 mb 0.00 in0.0 mm 0.00 in0.0 mm 0.00 in0.0 mm
07:32 AM 52.8°F11.6°C 45.9°F7.7°C 77% 1.5 mph SE2.4 kmh SE 3.0 mph4.8 kmh 30.34 in1027.4 mb 0.00 in0.0 mm 0.00 in0.0 mm 0.00 in0.0 mm
07:37 AM 53.2°F11.8°C 46.2°F7.9°C 77% 1.1 mph E1.8 kmh E 3.0 mph4.8 kmh 30.34 in1027.4 mb 0.00 in0.0 mm 0.00 in0.0 mm 0.00 in0.0 mm
07:42 AM 53.3°F11.8°C 46.3°F7.9°C 77% 1.0 mph ESE1.6 kmh ESE 3.0 mph4.8 kmh 30.35 in1027.8 mb 0.00 in0.0 mm 0.00 in0.0 mm 0.00 in0.0 mm
07:47 AM 53.6°F12.0°C 46.6°F8.1°C 77% 1.7 mph SE2.7 kmh SE 4.0 mph6.4 kmh 30.35 in1027.8 mb 0.00 in0.0 mm 0.00 in0.0 mm 0.00 in0.0 mm
07:52 AM 54.0°F12.2°C 46.7°F8.2°C 76% 1.5 mph SE2.4 kmh SE 4.0 mph6.4 kmh 30.35 in1027.8 mb 0.00 in0.0 mm 0.00 in0.0 mm 0.00 in0.0 mm
07:57 AM 54.1°F12.3°C 47.1°F8.4°C 77% 1.8 mph ESE2.9 kmh ESE 4.0 mph6.4 kmh 30.34 in1027.4 mb 0.00 in0.0 mm 0.00 in0.0 mm 0.00 in0.0 mm
08:02 AM 54.7°F12.6°C 47.4°F8.6°C 76% 2.0 mph E3.2 kmh E 4.0 mph6.4 kmh 30.34 in1027.4 mb 0.00 in0.0 mm 0.00 in0.0 mm 0.00 in0.0 mm
08:07 AM 55.1°F12.8°C 47.7°F8.7°C 76% 1.7 mph E2.7 kmh E 4.0 mph6.4 kmh 30.34 in1027.4 mb 0.00 in0.0 mm 0.00 in0.0 mm 0.00 in0.0 mm
08:12 AM 55.6°F13.1°C 47.9°F8.8°C 75% 1.2 mph E1.9 kmh E 4.0 mph6.4 kmh 30.33 in1027.1 mb 0.00 in0.0 mm 0.00 in0.0 mm 0.00 in0.0 mm
08:17 AM 55.8°F13.2°C 48.1°F8.9°C 75% 2.0 mph E3.2 kmh E 4.0 mph6.4 kmh 30.33 in1027.1 mb 0.00 in0.0 mm 0.00 in0.0 mm 0.00 in0.0 mm
08:22 AM 56.1°F13.4°C 48.7°F9.3°C 76% 2.5 mph ESE4.0 kmh ESE 5.0 mph8.0 kmh 30.33 in1027.1 mb 0.00 in0.0 mm 0.00 in0.0 mm 0.00 in0.0 mm
08:27 AM 56.8°F13.8°C 48.7°F9.3°C 74% 3.4 mph SE5.5 kmh SE 6.0 mph9.7 kmh 30.33 in1027.1 mb 0.00 in0.0 mm 0.00 in0.0 mm 0.00 in0.0 mm
08:32 AM 57.1°F13.9°C 49.0°F9.4°C 74% 2.2 mph SE3.5 kmh SE 7.0 mph11.3 kmh 30.33 in1027.1 mb 0.00 in0.0 mm 0.00 in0.0 mm 0.00 in0.0 mm
08:37 AM 57.3°F14.1°C 49.2°F9.6°C 74% 4.0 mph SE6.4 kmh SE 8.0 mph12.9 kmh 30.32 in1026.8 mb 0.00 in0.0 mm 0.00 in0.0 mm 0.00 in0.0 mm
08:42 AM 57.8°F14.3°C 49.3°F9.6°C 73% 2.9 mph ESE4.7 kmh ESE 8.0 mph12.9 kmh 30.33 in1027.1 mb 0.00 in0.0 mm 0.00 in0.0 mm 0.00 in0.0 mm
08:47 AM 58.3°F14.6°C 49.7°F9.8°C 73% 3.6 mph SE5.8 kmh SE 8.0 mph12.9 kmh 30.33 in1027.1 mb 0.00 in0.0 mm 0.00 in0.0 mm 0.00 in0.0 mm
08:52 AM 58.7°F14.8°C 49.7°F9.8°C 72% 1.4 mph SE2.3 kmh SE 8.0 mph12.9 kmh 30.33 in1027.1 mb 0.00 in0.0 mm 0.00 in0.0 mm 0.00 in0.0 mm
08:57 AM 59.3°F15.2°C 50.0°F10.0°C 71% 2.1 mph SE3.4 kmh SE 7.0 mph11.3 kmh 30.34 in1027.4 mb 0.00 in0.0 mm 0.00 in0.0 mm 0.00 in0.0 mm
09:02 AM 60.2°F15.7°C 50.5°F10.3°C 70% 1.4 mph SE2.3 kmh SE 7.0 mph11.3 kmh 30.34 in1027.4 mb 0.00 in0.0 mm 0.00 in0.0 mm 0.00 in0.0 mm
09:07 AM 60.9°F16.1°C 50.8°F10.4°C 69% 1.7 mph SW2.7 kmh SW 7.0 mph11.3 kmh 30.35 in1027.8 mb 0.00 in0.0 mm 0.00 in0.0 mm 0.00 in0.0 mm
09:12 AM 61.4°F16.3°C 50.7°F10.4°C 68% 1.0 mph WSW1.6 kmh WSW 5.0 mph8.0 kmh 30.34 in1027.4 mb 0.00 in0.0 mm 0.00 in0.0 mm 0.00 in0.0 mm
09:17 AM 62.3°F16.8°C 51.4°F10.8°C 67% 1.5 mph SE2.4 kmh SE 5.0 mph8.0 kmh 30.34 in1027.4 mb 0.00 in0.0 mm 0.00 in0.0 mm 0.00 in0.0 mm
09:22 AM 62.9°F17.2°C 51.5°F10.8°C 66% 1.7 mph SE2.7 kmh SE 6.0 mph9.7 kmh 30.34 in1027.4 mb 0.00 in0.0 mm 0.00 in0.0 mm 0.00 in0.0 mm
09:27 AM 63.0°F17.2°C 51.2°F10.7°C 65% 2.5 mph SSW4.0 kmh SSW 8.0 mph12.9 kmh 30.34 in1027.4 mb 0.00 in0.0 mm 0.00 in0.0 mm 0.00 in0.0 mm
09:32 AM 63.1°F17.3°C 51.3°F10.7°C 65% 2.2 mph SW3.5 kmh SW 8.0 mph12.9 kmh 30.34 in1027.4 mb 0.00 in0.0 mm 0.00 in0.0 mm 0.00 in0.0 mm
09:37 AM 63.5°F17.5°C 51.3°F10.7°C 64% 3.5 mph SE5.6 kmh SE 8.0 mph12.9 kmh 30.34 in1027.4 mb 0.00 in0.0 mm 0.00 in0.0 mm 0.00 in0.0 mm
09:42 AM 63.9°F17.7°C 51.6°F10.9°C 64% 1.0 mph SE1.6 kmh SE 8.0 mph12.9 kmh 30.34 in1027.4 mb 0.00 in0.0 mm 0.00 in0.0 mm 0.00 in0.0 mm
09:47 AM 64.4°F18.0°C 51.3°F10.7°C 62% 2.9 mph SSW4.7 kmh SSW 7.0 mph11.3 kmh 30.34 in1027.4 mb 0.00 in0.0 mm 0.00 in0.0 mm 0.00 in0.0 mm
09:52 AM 64.8°F18.2°C 51.6°F10.9°C 62% 2.7 mph SE4.3 kmh SE 7.0 mph11.3 kmh 30.35 in1027.8 mb 0.00 in0.0 mm 0.00 in0.0 mm 0.00 in0.0 mm
09:57 AM 64.9°F18.3°C 50.4°F10.2°C 59% 3.5 mph SSE5.6 kmh SSE 8.0 mph12.9 kmh 30.35 in1027.8 mb 0.00 in0.0 mm 0.00 in0.0 mm 0.00 in0.0 mm
10:02 AM 65.1°F18.4°C 51.5°F10.8°C 61% 3.9 mph SSE6.3 kmh SSE 8.0 mph12.9 kmh 30.35 in1027.8 mb 0.00 in0.0 mm 0.00 in0.0 mm 0.00 in0.0 mm
10:07 AM 65.4°F18.6°C 50.8°F10.4°C 59% 1.6 mph S2.6 kmh S 8.0 mph12.9 kmh 30.35 in1027.8 mb 0.00 in0.0 mm 0.00 in0.0 mm 0.00 in0.0 mm
10:12 AM 65.5°F18.6°C 50.5°F10.3°C 58% 2.1 mph S3.4 kmh S 9.0 mph14.5 kmh 30.35 in1027.8 mb 0.00 in0.0 mm 0.00 in0.0 mm 0.00 in0.0 mm
10:17 AM 65.8°F18.8°C 50.3°F10.2°C 57% 3.5 mph SSW5.6 kmh SSW 11.0 mph17.7 kmh 30.35 in1027.8 mb 0.00 in0.0 mm 0.00 in0.0 mm 0.00 in0.0 mm
10:22 AM 65.9°F18.8°C 49.9°F9.9°C 56% 2.8 mph SSE4.5 kmh SSE 11.0 mph17.7 kmh 30.35 in1027.8 mb 0.00 in0.0 mm 0.00 in0.0 mm 0.00 in0.0 mm
10:27 AM 66.2°F19.0°C 50.2°F10.1°C 56% 2.9 mph SSE4.7 kmh SSE 11.0 mph17.7 kmh 30.35 in1027.8 mb 0.00 in0.0 mm 0.00 in0.0 mm 0.00 in0.0 mm
10:32 AM 66.8°F19.3°C 50.7°F10.4°C 56% 2.0 mph S3.2 kmh S 11.0 mph17.7 kmh 30.35 in1027.8 mb 0.00 in0.0 mm 0.00 in0.0 mm 0.00 in0.0 mm
10:37 AM 67.2°F19.6°C 50.1°F10.1°C 54% 2.8 mph ESE4.5 kmh ESE 11.0 mph17.7 kmh 30.34 in1027.4 mb 0.00 in0.0 mm 0.00 in0.0 mm 0.00 in0.0 mm
10:42 AM 67.3°F19.6°C 49.7°F9.8°C 53% 2.1 mph S3.4 kmh S 11.0 mph17.7 kmh 30.34 in1027.4 mb 0.00 in0.0 mm 0.00 in0.0 mm 0.00 in0.0 mm
10:47 AM 67.0°F19.4°C 48.3°F9.1°C 51% 2.4 mph S3.9 kmh S 14.0 mph22.5 kmh 30.34 in1027.4 mb 0.00 in0.0 mm 0.00 in0.0 mm 0.00 in0.0 mm
10:52 AM 67.0°F19.4°C 47.7°F8.7°C 50% 4.0 mph SSE6.4 kmh SSE 14.0 mph22.5 kmh 30.34 in1027.4 mb 0.00 in0.0 mm 0.00 in0.0 mm 0.00 in0.0 mm
10:57 AM 67.1°F19.5°C 48.4°F9.1°C 51% 6.6 mph SE10.6 kmh SE 22.0 mph35.4 kmh 30.34 in1027.4 mb 0.00 in0.0 mm 0.00 in0.0 mm 0.00 in0.0 mm
11:02 AM 66.7°F19.3°C 48.6°F9.2°C 52% 4.2 mph SSE6.8 kmh SSE 22.0 mph35.4 kmh 30.33 in1027.1 mb 0.00 in0.0 mm 0.00 in0.0 mm 0.00 in0.0 mm
11:07 AM 67.0°F19.4°C 48.3°F9.1°C 51% 5.0 mph SSE8.0 kmh SSE 22.0 mph35.4 kmh 30.34 in1027.4 mb 0.00 in0.0 mm 0.00 in0.0 mm 0.00 in0.0 mm
11:12 AM 67.1°F19.5°C 47.9°F8.8°C 50% 4.8 mph SSE7.7 kmh SSE 22.0 mph35.4 kmh 30.34 in1027.4 mb 0.00 in0.0 mm 0.00 in0.0 mm 0.00 in0.0 mm
11:17 AM 67.5°F19.7°C 48.2°F9.0°C 50% 4.7 mph SSE7.6 kmh SSE 16.0 mph25.7 kmh 30.34 in1027.4 mb 0.00 in0.0 mm 0.00 in0.0 mm 0.00 in0.0 mm
11:22 AM 68.0°F20.0°C 48.2°F9.0°C 49% 2.6 mph SE4.2 kmh SE 14.0 mph22.5 kmh 30.34 in1027.4 mb 0.00 in0.0 mm 0.00 in0.0 mm 0.00 in0.0 mm
11:27 AM 68.1°F20.1°C 47.7°F8.7°C 48% 5.2 mph SE8.4 kmh SE 14.0 mph22.5 kmh 30.33 in1027.1 mb 0.00 in0.0 mm 0.00 in0.0 mm 0.00 in0.0 mm
11:32 AM 68.1°F20.1°C 47.1°F8.4°C 47% 6.7 mph SE10.8 kmh SE 16.0 mph25.7 kmh 30.33 in1027.1 mb 0.00 in0.0 mm 0.00 in0.0 mm 0.00 in0.0 mm
11:37 AM 67.9°F19.9°C 45.7°F7.6°C 45% 7.3 mph SE11.7 kmh SE 17.0 mph27.4 kmh 30.32 in1026.8 mb 0.00 in0.0 mm 0.00 in0.0 mm 0.00 in0.0 mm
11:42 AM 68.3°F20.2°C 47.3°F8.5°C 47% 6.5 mph SE10.5 kmh SE 17.0 mph27.4 kmh 30.32 in1026.8 mb 0.00 in0.0 mm 0.00 in0.0 mm 0.00 in0.0 mm
11:47 AM 68.2°F20.1°C 44.8°F7.1°C 43% 7.1 mph SE11.4 kmh SE 17.0 mph27.4 kmh 30.31 in1026.4 mb 0.00 in0.0 mm 0.00 in0.0 mm 0.00 in0.0 mm
11:52 AM 68.3°F20.2°C 46.1°F7.8°C 45% 6.2 mph SSE10.0 kmh SSE 17.0 mph27.4 kmh 30.31 in1026.4 mb 0.00 in0.0 mm 0.00 in0.0 mm 0.00 in0.0 mm
11:57 AM 68.6°F20.3°C 46.4°F8.0°C 45% 3.3 mph SE5.3 kmh SE 16.0 mph25.7 kmh 30.31 in1026.4 mb 0.00 in0.0 mm 0.00 in0.0 mm 0.00 in0.0 mm
12:02 PM 69.2°F20.7°C 48.1°F8.9°C 47% 3.4 mph SE5.5 kmh SE 15.0 mph24.1 kmh 30.31 in1026.4 mb 0.00 in0.0 mm 0.00 in0.0 mm 0.00 in0.0 mm
12:07 PM 69.7°F20.9°C 46.1°F7.8°C 43% 3.0 mph S4.8 kmh S 14.0 mph22.5 kmh 30.31 in1026.4 mb 0.00 in0.0 mm 0.00 in0.0 mm 0.00 in0.0 mm
12:12 PM 69.6°F20.9°C 45.4°F7.4°C 42% 4.2 mph SE6.8 kmh SE 13.0 mph20.9 kmh 30.30 in1026.1 mb 0.00 in0.0 mm 0.00 in0.0 mm 0.00 in0.0 mm
12:17 PM 69.5°F20.8°C 45.3°F7.4°C 42% 3.9 mph SE6.3 kmh SE 13.0 mph20.9 kmh 30.30 in1026.1 mb 0.00 in0.0 mm 0.00 in0.0 mm 0.00 in0.0 mm
12:22 PM 69.4°F20.8°C 45.9°F7.7°C 43% 3.4 mph ESE5.5 kmh ESE 16.0 mph25.7 kmh 30.30 in1026.1 mb 0.00 in0.0 mm 0.00 in0.0 mm 0.00 in0.0 mm
12:27 PM 69.5°F20.8°C 46.0°F7.8°C 43% 6.2 mph SE10.0 kmh SE 16.0 mph25.7 kmh 30.29 in1025.7 mb 0.00 in0.0 mm 0.00 in0.0 mm 0.00 in0.0 mm
12:32 PM 69.8°F21.0°C 45.7°F7.6°C 42% 2.7 mph SSE4.3 kmh SSE 16.0 mph25.7 kmh 30.29 in1025.7 mb 0.00 in0.0 mm 0.00 in0.0 mm 0.00 in0.0 mm
12:37 PM 69.7°F20.9°C 45.6°F7.6°C 42% 2.8 mph SSE4.5 kmh SSE 16.0 mph25.7 kmh 30.29 in1025.7 mb 0.00 in0.0 mm 0.00 in0.0 mm 0.00 in0.0 mm
12:42 PM 69.8°F21.0°C 45.0°F7.2°C 41% 3.9 mph SE6.3 kmh SE 12.0 mph19.3 kmh 30.29 in1025.7 mb 0.00 in0.0 mm 0.00 in0.0 mm 0.00 in0.0 mm
12:47 PM 69.9°F21.1°C 45.1°F7.3°C 41% 5.6 mph SE9.0 kmh SE 12.0 mph19.3 kmh 30.29 in1025.7 mb 0.00 in0.0 mm 0.00 in0.0 mm 0.00 in0.0 mm
12:52 PM 69.6°F20.9°C 44.7°F7.1°C 41% 9.1 mph SE14.6 kmh SE 16.0 mph25.7 kmh 30.29 in1025.7 mb 0.00 in0.0 mm 0.00 in0.0 mm 0.00 in0.0 mm
12:56 PM 69.6°F20.9°C 44.8°F7.1°C 41% 2.7 mph SSE4.3 kmh SSE 16.0 mph25.7 kmh 30.28 in1025.4 mb 0.00 in0.0 mm 0.00 in0.0 mm 0.00 in0.0 mm
01:01 PM 69.5°F20.8°C 45.4°F7.4°C 42% 7.6 mph SE12.2 kmh SE 16.0 mph25.7 kmh 30.29 in1025.7 mb 0.00 in0.0 mm 0.00 in0.0 mm 0.00 in0.0 mm
01:06 PM 69.2°F20.7°C 45.1°F7.3°C 42% 6.1 mph SE9.8 kmh SE 16.0 mph25.7 kmh 30.29 in1025.7 mb 0.00 in0.0 mm 0.00 in0.0 mm 0.00 in0.0 mm
01:11 PM 69.3°F20.7°C 45.8°F7.7°C 43% 5.4 mph SE8.7 kmh SE 14.0 mph22.5 kmh 30.29 in1025.7 mb 0.00 in0.0 mm 0.00 in0.0 mm 0.00 in0.0 mm
01:16 PM 69.8°F21.0°C 46.2°F7.9°C 43% 3.1 mph S5.0 kmh S 14.0 mph22.5 kmh 30.30 in1026.1 mb 0.00 in0.0 mm 0.00 in0.0 mm 0.00 in0.0 mm
01:21 PM 70.4°F21.3°C 46.1°F7.8°C 42% 2.6 mph SSE4.2 kmh SSE 12.0 mph19.3 kmh 30.29 in1025.7 mb 0.00 in0.0 mm 0.00 in0.0 mm 0.00 in0.0 mm
01:26 PM 70.4°F21.3°C 46.1°F7.8°C 42% 5.1 mph SE8.2 kmh SE 13.0 mph20.9 kmh 30.29 in1025.7 mb 0.00 in0.0 mm 0.00 in0.0 mm 0.00 in0.0 mm
01:31 PM 70.5°F21.4°C 44.9°F7.2°C 40% 4.3 mph SE6.9 kmh SE 13.0 mph20.9 kmh 30.29 in1025.7 mb 0.00 in0.0 mm 0.00 in0.0 mm 0.00 in0.0 mm
01:36 PM 70.6°F21.4°C 45.0°F7.2°C 40% 3.6 mph SSE5.8 kmh SSE 13.0 mph20.9 kmh 30.28 in1025.4 mb 0.00 in0.0 mm 0.00 in0.0 mm 0.00 in0.0 mm
01:41 PM 70.8°F21.6°C 45.8°F7.7°C 41% 6.3 mph SE10.1 kmh SE 13.0 mph20.9 kmh 30.27 in1025.1 mb 0.00 in0.0 mm 0.00 in0.0 mm 0.00 in0.0 mm
01:46 PM 70.6°F21.4°C 45.7°F7.6°C 41% 5.1 mph SE8.2 kmh SE 13.0 mph20.9 kmh 30.27 in1025.1 mb 0.00 in0.0 mm 0.00 in0.0 mm 0.00 in0.0 mm
01:51 PM 70.6°F21.4°C 45.0°F7.2°C 40% 4.8 mph SE7.7 kmh SE 14.0 mph22.5 kmh 30.27 in1025.1 mb 0.00 in0.0 mm 0.00 in0.0 mm 0.00 in0.0 mm
01:56 PM 70.4°F21.3°C 45.5°F7.5°C 41% 5.9 mph SE9.5 kmh SE 15.0 mph24.1 kmh 30.26 in1024.7 mb 0.00 in0.0 mm 0.00 in0.0 mm 0.00 in0.0 mm
02:01 PM 70.6°F21.4°C 45.7°F7.6°C 41% 5.7 mph SE9.2 kmh SE 15.0 mph24.1 kmh 30.26 in1024.7 mb 0.00 in0.0 mm 0.00 in0.0 mm 0.00 in0.0 mm
02:06 PM 71.0°F21.7°C 46.7°F8.2°C 42% 2.9 mph E4.7 kmh E 15.0 mph24.1 kmh 30.26 in1024.7 mb 0.00 in0.0 mm 0.00 in0.0 mm 0.00 in0.0 mm
02:11 PM 71.3°F21.8°C 46.9°F8.3°C 42% 5.6 mph ESE9.0 kmh ESE 15.0 mph24.1 kmh 30.25 in1024.4 mb 0.00 in0.0 mm 0.00 in0.0 mm 0.00 in0.0 mm
02:16 PM 71.4°F21.9°C 46.4°F8.0°C 41% 5.3 mph SE8.5 kmh SE 13.0 mph20.9 kmh 30.25 in1024.4 mb 0.00 in0.0 mm 0.00 in0.0 mm 0.00 in0.0 mm
02:21 PM 71.8°F22.1°C 47.4°F8.6°C 42% 2.8 mph SE4.5 kmh SE 11.0 mph17.7 kmh 30.25 in1024.4 mb 0.00 in0.0 mm 0.00 in0.0 mm 0.00 in0.0 mm
02:26 PM 71.3°F21.8°C 45.7°F7.6°C 40% 7.2 mph SE11.6 kmh SE 16.0 mph25.7 kmh 30.24 in1024.0 mb 0.00 in0.0 mm 0.00 in0.0 mm 0.00 in0.0 mm
02:31 PM 71.0°F21.7°C 45.5°F7.5°C 40% 5.5 mph SSE8.9 kmh SSE 16.0 mph25.7 kmh 30.24 in1024.0 mb 0.00 in0.0 mm 0.00 in0.0 mm 0.00 in0.0 mm
02:36 PM 70.8°F21.6°C 45.8°F7.7°C 41% 7.4 mph SE11.9 kmh SE 16.0 mph25.7 kmh 30.24 in1024.0 mb 0.00 in0.0 mm 0.00 in0.0 mm 0.00 in0.0 mm
02:41 PM 70.8°F21.6°C 46.5°F8.1°C 42% 5.9 mph SE9.5 kmh SE 16.0 mph25.7 kmh 30.23 in1023.7 mb 0.00 in0.0 mm 0.00 in0.0 mm 0.00 in0.0 mm
02:46 PM 70.6°F21.4°C 46.3°F7.9°C 42% 5.4 mph ESE8.7 kmh ESE 14.0 mph22.5 kmh 30.22 in1023.4 mb 0.00 in0.0 mm 0.00 in0.0 mm 0.00 in0.0 mm
02:51 PM 70.7°F21.5°C 47.0°F8.3°C 43% 3.9 mph SSE6.3 kmh SSE 14.0 mph22.5 kmh 30.22 in1023.4 mb 0.00 in0.0 mm 0.00 in0.0 mm 0.00 in0.0 mm
02:56 PM 71.1°F21.7°C 47.4°F8.6°C 43% 3.7 mph SE6.0 kmh SE 14.0 mph22.5 kmh 30.21 in1023.0 mb 0.00 in0.0 mm 0.00 in0.0 mm 0.00 in0.0 mm
03:01 PM 71.2°F21.8°C 47.5°F8.6°C 43% 4.6 mph SE7.4 kmh SE 14.0 mph22.5 kmh 30.22 in1023.4 mb 0.00 in0.0 mm 0.00 in0.0 mm 0.00 in0.0 mm
03:06 PM 71.0°F21.7°C 47.3°F8.5°C 43% 4.4 mph SE7.1 kmh SE 16.0 mph25.7 kmh 30.21 in1023.0 mb 0.00 in0.0 mm 0.00 in0.0 mm 0.00 in0.0 mm
03:11 PM 71.1°F21.7°C 48.0°F8.9°C 44% 5.3 mph SE8.5 kmh SE 16.0 mph25.7 kmh 30.21 in1023.0 mb 0.00 in0.0 mm 0.00 in0.0 mm 0.00 in0.0 mm
03:16 PM 71.3°F21.8°C 47.6°F8.7°C 43% 2.7 mph S4.3 kmh S 16.0 mph25.7 kmh 30.21 in1023.0 mb 0.00 in0.0 mm 0.00 in0.0 mm 0.00 in0.0 mm
03:21 PM 71.3°F21.8°C 48.2°F9.0°C 44% 2.9 mph S4.7 kmh S 16.0 mph25.7 kmh 30.22 in1023.4 mb 0.00 in0.0 mm 0.00 in0.0 mm 0.00 in0.0 mm
03:26 PM 71.5°F21.9°C 48.4°F9.1°C 44% 2.6 mph S4.2 kmh S 13.0 mph20.9 kmh 30.22 in1023.4 mb 0.00 in0.0 mm 0.00 in0.0 mm 0.00 in0.0 mm
03:31 PM 71.4°F21.9°C 48.3°F9.1°C 44% 2.1 mph S3.4 kmh S 9.0 mph14.5 kmh 30.22 in1023.4 mb 0.00 in0.0 mm 0.00 in0.0 mm 0.00 in0.0 mm
03:36 PM 71.3°F21.8°C 48.3°F9.1°C 44% 4.1 mph SE6.6 kmh SE 9.0 mph14.5 kmh 30.21 in1023.0 mb 0.00 in0.0 mm 0.00 in0.0 mm 0.00 in0.0 mm
03:41 PM 71.4°F21.9°C 48.3°F9.1°C 44% 2.9 mph SE4.7 kmh SE 9.0 mph14.5 kmh 30.20 in1022.7 mb 0.00 in0.0 mm 0.00 in0.0 mm 0.00 in0.0 mm
03:46 PM 71.6°F22.0°C 49.1°F9.5°C 45% 2.5 mph SSE4.0 kmh SSE 9.0 mph14.5 kmh 30.20 in1022.7 mb 0.00 in0.0 mm 0.00 in0.0 mm 0.00 in0.0 mm
03:51 PM 71.6°F22.0°C 49.1°F9.5°C 45% 3.3 mph SE5.3 kmh SE 9.0 mph14.5 kmh 30.20 in1022.7 mb 0.00 in0.0 mm 0.00 in0.0 mm 0.00 in0.0 mm
03:56 PM 71.4°F21.9°C 48.9°F9.4°C 45% 4.2 mph SSE6.8 kmh SSE 9.0 mph14.5 kmh 30.20 in1022.7 mb 0.00 in0.0 mm 0.00 in0.0 mm 0.00 in0.0 mm
04:01 PM 71.2°F21.8°C 48.8°F9.3°C 45% 2.9 mph SE4.7 kmh SE 9.0 mph14.5 kmh 30.20 in1022.7 mb 0.00 in0.0 mm 0.00 in0.0 mm 0.00 in0.0 mm
04:06 PM 71.2°F21.8°C 49.4°F9.7°C 46% 4.7 mph SE7.6 kmh SE 9.0 mph14.5 kmh 30.20 in1022.7 mb 0.00 in0.0 mm 0.00 in0.0 mm 0.00 in0.0 mm
04:11 PM 71.2°F21.8°C 49.4°F9.7°C 46% 1.9 mph SSE3.1 kmh SSE 9.0 mph14.5 kmh 30.20 in1022.7 mb 0.00 in0.0 mm 0.00 in0.0 mm 0.00 in0.0 mm
04:16 PM 71.4°F21.9°C 49.5°F9.7°C 46% 2.6 mph SSE4.2 kmh SSE 8.0 mph12.9 kmh 30.19 in1022.4 mb 0.00 in0.0 mm 0.00 in0.0 mm 0.00 in0.0 mm
04:21 PM 71.4°F21.9°C 48.3°F9.1°C 44% 1.9 mph S3.1 kmh S 12.0 mph19.3 kmh 30.19 in1022.4 mb 0.00 in0.0 mm 0.00 in0.0 mm 0.00 in0.0 mm
04:26 PM 71.4°F21.9°C 48.3°F9.1°C 44% 4.4 mph SE7.1 kmh SE 12.0 mph19.3 kmh 30.19 in1022.4 mb 0.00 in0.0 mm 0.00 in0.0 mm 0.00 in0.0 mm
04:31 PM 71.5°F21.9°C 49.0°F9.4°C 45% 2.4 mph S3.9 kmh S 12.0 mph19.3 kmh 30.19 in1022.4 mb 0.00 in0.0 mm 0.00 in0.0 mm 0.00 in0.0 mm
04:36 PM 71.5°F21.9°C 49.0°F9.4°C 45% 4.4 mph SE7.1 kmh SE 12.0 mph19.3 kmh 30.19 in1022.4 mb 0.00 in0.0 mm 0.00 in0.0 mm 0.00 in0.0 mm
04:41 PM 71.6°F22.0°C 49.7°F9.8°C 46% 1.9 mph E3.1 kmh E 10.0 mph16.1 kmh 30.19 in1022.4 mb 0.00 in0.0 mm 0.00 in0.0 mm 0.00 in0.0 mm
04:46 PM 71.6°F22.0°C 49.1°F9.5°C 45% 3.7 mph SE6.0 kmh SE 9.0 mph14.5 kmh 30.19 in1022.4 mb 0.00 in0.0 mm 0.00 in0.0 mm 0.00 in0.0 mm
04:51 PM 71.5°F21.9°C 49.0°F9.4°C 45% 2.7 mph SSE4.3 kmh SSE 9.0 mph14.5 kmh 30.19 in1022.4 mb 0.00 in0.0 mm 0.00 in0.0 mm 0.00 in0.0 mm
04:56 PM 71.3°F21.8°C 48.8°F9.3°C 45% 4.1 mph SE6.6 kmh SE 10.0 mph16.1 kmh 30.19 in1022.4 mb 0.00 in0.0 mm 0.00 in0.0 mm 0.00 in0.0 mm
05:01 PM 71.2°F21.8°C 48.7°F9.3°C 45% 3.1 mph SE5.0 kmh SE 10.0 mph16.1 kmh 30.19 in1022.4 mb 0.00 in0.0 mm 0.00 in0.0 mm 0.00 in0.0 mm
05:06 PM 71.2°F21.8°C 49.3°F9.6°C 46% 4.0 mph ESE6.4 kmh ESE 10.0 mph16.1 kmh 30.19 in1022.4 mb 0.00 in0.0 mm 0.00 in0.0 mm 0.00 in0.0 mm
05:11 PM 71.0°F21.7°C 49.2°F9.6°C 46% 4.1 mph SE6.6 kmh SE 13.0 mph20.9 kmh 30.19 in1022.4 mb 0.00 in0.0 mm 0.00 in0.0 mm 0.00 in0.0 mm
05:16 PM 70.9°F21.6°C 49.1°F9.5°C 46% 2.2 mph SE3.5 kmh SE 13.0 mph20.9 kmh 30.19 in1022.4 mb 0.00 in0.0 mm 0.00 in0.0 mm 0.00 in0.0 mm
05:21 PM 70.8°F21.6°C 49.6°F9.8°C 47% 1.7 mph SE2.7 kmh SE 13.0 mph20.9 kmh 30.18 in1022.0 mb 0.00 in0.0 mm 0.00 in0.0 mm 0.00 in0.0 mm
05:26 PM 70.6°F21.4°C 50.0°F10.0°C 48% 2.4 mph SE3.9 kmh SE 13.0 mph20.9 kmh 30.18 in1022.0 mb 0.00 in0.0 mm 0.00 in0.0 mm 0.00 in0.0 mm
05:31 PM 70.5°F21.4°C 49.9°F9.9°C 48% 4.8 mph SE7.7 kmh SE 9.0 mph14.5 kmh 30.18 in1022.0 mb 0.00 in0.0 mm 0.00 in0.0 mm 0.00 in0.0 mm
05:36 PM 70.4°F21.3°C 49.8°F9.9°C 48% 2.8 mph SE4.5 kmh SE 9.0 mph14.5 kmh 30.18 in1022.0 mb 0.00 in0.0 mm 0.00 in0.0 mm 0.00 in0.0 mm
05:41 PM 70.3°F21.3°C 50.3°F10.2°C 49% 1.2 mph SE1.9 kmh SE 9.0 mph14.5 kmh 30.18 in1022.0 mb 0.00 in0.0 mm 0.00 in0.0 mm 0.00 in0.0 mm
05:46 PM 70.2°F21.2°C 50.2°F10.1°C 49% 2.6 mph E4.2 kmh E 8.0 mph12.9 kmh 30.18 in1022.0 mb 0.00 in0.0 mm 0.00 in0.0 mm 0.00 in0.0 mm
05:51 PM 70.1°F21.2°C 50.1°F10.1°C 49% 3.1 mph ESE5.0 kmh ESE 7.0 mph11.3 kmh 30.18 in1022.0 mb 0.00 in0.0 mm 0.00 in0.0 mm 0.00 in0.0 mm
05:56 PM 69.9°F21.1°C 50.5°F10.3°C 50% 2.5 mph SE4.0 kmh SE 6.0 mph9.7 kmh 30.18 in1022.0 mb 0.00 in0.0 mm 0.00 in0.0 mm 0.00 in0.0 mm
06:01 PM 69.8°F21.0°C 50.4°F10.2°C 50% 2.5 mph SE4.0 kmh SE 8.0 mph12.9 kmh 30.18 in1022.0 mb 0.00 in0.0 mm 0.00 in0.0 mm 0.00 in0.0 mm
06:06 PM 69.7°F20.9°C 50.3°F10.2°C 50% 3.6 mph SE5.8 kmh SE 8.0 mph12.9 kmh 30.18 in1022.0 mb 0.00 in0.0 mm 0.00 in0.0 mm 0.00 in0.0 mm
06:11 PM 69.7°F20.9°C 50.8°F10.4°C 51% 2.5 mph ESE4.0 kmh ESE 8.0 mph12.9 kmh 30.18 in1022.0 mb 0.00 in0.0 mm 0.00 in0.0 mm 0.00 in0.0 mm
06:16 PM 69.5°F20.8°C 50.6°F10.3°C 51% 2.5 mph ESE4.0 kmh ESE 6.0 mph9.7 kmh 30.18 in1022.0 mb 0.00 in0.0 mm 0.00 in0.0 mm 0.00 in0.0 mm
06:21 PM 69.4°F20.8°C 50.6°F10.3°C 51% 1.8 mph SE2.9 kmh SE 6.0 mph9.7 kmh 30.18 in1022.0 mb 0.00 in0.0 mm 0.00 in0.0 mm 0.00 in0.0 mm
06:26 PM 69.4°F20.8°C 50.6°F10.3°C 51% 2.1 mph SE3.4 kmh SE 6.0 mph9.7 kmh 30.18 in1022.0 mb 0.00 in0.0 mm 0.00 in0.0 mm 0.00 in0.0 mm
06:31 PM 69.2°F20.7°C 50.9°F10.5°C 52% 2.0 mph SE3.2 kmh SE 6.0 mph9.7 kmh 30.18 in1022.0 mb 0.00 in0.0 mm 0.00 in0.0 mm 0.00 in0.0 mm
06:36 PM 69.1°F20.6°C 50.8°F10.4°C 52% 2.4 mph ESE3.9 kmh ESE 6.0 mph9.7 kmh 30.18 in1022.0 mb 0.00 in0.0 mm 0.00 in0.0 mm 0.00 in0.0 mm
06:41 PM 69.0°F20.6°C 50.7°F10.4°C 52% 1.0 mph ESE1.6 kmh ESE 6.0 mph9.7 kmh 30.18 in1022.0 mb 0.00 in0.0 mm 0.00 in0.0 mm 0.00 in0.0 mm
06:46 PM 68.9°F20.5°C 51.2°F10.7°C 53% 3.6 mph ESE5.8 kmh ESE 7.0 mph11.3 kmh 30.18 in1022.0 mb 0.00 in0.0 mm 0.00 in0.0 mm 0.00 in0.0 mm
06:51 PM 68.8°F20.4°C 51.1°F10.6°C 53% 1.1 mph E1.8 kmh E 7.0 mph11.3 kmh 30.18 in1022.0 mb 0.00 in0.0 mm 0.00 in0.0 mm 0.00 in0.0 mm
06:55 PM 68.7°F20.4°C 51.0°F10.6°C 53% 1.0 mph SE1.6 kmh SE 7.0 mph11.3 kmh 30.18 in1022.0 mb 0.00 in0.0 mm 0.00 in0.0 mm 0.00 in0.0 mm
07:00 PM 68.6°F20.3°C 50.9°F10.5°C 53% 2.3 mph SE3.7 kmh SE 7.0 mph11.3 kmh 30.18 in1022.0 mb 0.00 in0.0 mm 0.00 in0.0 mm 0.00 in0.0 mm
07:05 PM 68.5°F20.3°C 51.3°F10.7°C 54% 1.2 mph SE1.9 kmh SE 5.0 mph8.0 kmh 30.18 in1022.0 mb 0.00 in0.0 mm 0.00 in0.0 mm 0.00 in0.0 mm
07:10 PM 68.4°F20.2°C 51.2°F10.7°C 54% 1.0 mph ESE1.6 kmh ESE 5.0 mph8.0 kmh 30.18 in1022.0 mb 0.00 in0.0 mm 0.00 in0.0 mm 0.00 in0.0 mm
07:15 PM 68.3°F20.2°C 51.6°F10.9°C 55% 1.2 mph E1.9 kmh E 5.0 mph8.0 kmh 30.18 in1022.0 mb 0.00 in0.0 mm 0.00 in0.0 mm 0.00 in0.0 mm
07:20 PM 68.1°F20.1°C 51.4°F10.8°C 55% 1.0 mph E1.6 kmh E 3.0 mph4.8 kmh 30.18 in1022.0 mb 0.00 in0.0 mm 0.00 in0.0 mm 0.00 in0.0 mm
07:25 PM 68.0°F20.0°C 51.3°F10.7°C 55% 1.5 mph E2.4 kmh E 3.0 mph4.8 kmh 30.18 in1022.0 mb 0.00 in0.0 mm 0.00 in0.0 mm 0.00 in0.0 mm
07:30 PM 67.7°F19.8°C 51.6°F10.9°C 56% 1.8 mph ESE2.9 kmh ESE 3.0 mph4.8 kmh 30.18 in1022.0 mb 0.00 in0.0 mm 0.00 in0.0 mm 0.00 in0.0 mm
07:35 PM 67.4°F19.7°C 51.8°F11.0°C 57% 1.2 mph E1.9 kmh E 2.0 mph3.2 kmh 30.19 in1022.4 mb 0.00 in0.0 mm 0.00 in0.0 mm 0.00 in0.0 mm
07:40 PM 67.0°F19.4°C 52.4°F11.3°C 59% 1.0 mph E1.6 kmh E 2.0 mph3.2 kmh 30.19 in1022.4 mb 0.00 in0.0 mm 0.00 in0.0 mm 0.00 in0.0 mm
07:45 PM 66.6°F19.2°C 52.9°F11.6°C 61% 1.6 mph ESE2.6 kmh ESE 3.0 mph4.8 kmh 30.19 in1022.4 mb 0.00 in0.0 mm 0.00 in0.0 mm 0.00 in0.0 mm
07:50 PM 66.2°F19.0°C 53.0°F11.7°C 62% 1.8 mph E2.9 kmh E 3.0 mph4.8 kmh 30.18 in1022.0 mb 0.00 in0.0 mm 0.00 in0.0 mm 0.00 in0.0 mm
07:55 PM 66.0°F18.9°C 53.2°F11.8°C 63% 1.3 mph E2.1 kmh E 3.0 mph4.8 kmh 30.18 in1022.0 mb 0.00 in0.0 mm 0.00 in0.0 mm 0.00 in0.0 mm
08:00 PM 65.8°F18.8°C 53.0°F11.7°C 63% 2.3 mph E3.7 kmh E 4.0 mph6.4 kmh 30.18 in1022.0 mb 0.00 in0.0 mm 0.00 in0.0 mm 0.00 in0.0 mm
08:05 PM 65.6°F18.7°C 53.3°F11.8°C 64% 2.0 mph E3.2 kmh E 4.0 mph6.4 kmh 30.18 in1022.0 mb 0.00 in0.0 mm 0.00 in0.0 mm 0.00 in0.0 mm
08:10 PM 65.2°F18.4°C 53.7°F12.1°C 66% 3.3 mph E5.3 kmh E 5.0 mph8.0 kmh 30.18 in1022.0 mb 0.00 in0.0 mm 0.00 in0.0 mm 0.00 in0.0 mm
08:15 PM 64.8°F18.2°C 53.7°F12.1°C 67% 1.6 mph E2.6 kmh E 5.0 mph8.0 kmh 30.17 in1021.7 mb 0.00 in0.0 mm 0.00 in0.0 mm 0.00 in0.0 mm
08:20 PM 64.2°F17.9°C 54.0°F12.2°C 69% 2.2 mph ESE3.5 kmh ESE 5.0 mph8.0 kmh 30.17 in1021.7 mb 0.00 in0.0 mm 0.00 in0.0 mm 0.00 in0.0 mm
08:25 PM 63.7°F17.6°C 53.9°F12.2°C 70% 1.9 mph SE3.1 kmh SE 5.0 mph8.0 kmh 30.18 in1022.0 mb 0.00 in0.0 mm 0.00 in0.0 mm 0.00 in0.0 mm
08:30 PM 63.4°F17.4°C 54.0°F12.2°C 71% 1.8 mph SE2.9 kmh SE 5.0 mph8.0 kmh 30.18 in1022.0 mb 0.00 in0.0 mm 0.00 in0.0 mm 0.00 in0.0 mm
08:35 PM 63.1°F17.3°C 53.7°F12.1°C 71% 2.3 mph SE3.7 kmh SE 5.0 mph8.0 kmh 30.18 in1022.0 mb 0.00 in0.0 mm 0.00 in0.0 mm 0.00 in0.0 mm
08:40 PM 63.1°F17.3°C 54.1°F12.3°C 72% 2.7 mph SE4.3 kmh SE 7.0 mph11.3 kmh 30.17 in1021.7 mb 0.00 in0.0 mm 0.00 in0.0 mm 0.00 in0.0 mm
08:45 PM 62.8°F17.1°C 53.8°F12.1°C 72% 2.4 mph ESE3.9 kmh ESE 7.0 mph11.3 kmh 30.18 in1022.0 mb 0.01 in0.3 mm 0.12 in3.0 mm 0.01 in0.3 mm
08:50 PM 62.6°F17.0°C 54.0°F12.2°C 73% 1.6 mph SE2.6 kmh SE 7.0 mph11.3 kmh 30.18 in1022.0 mb 0.01 in0.3 mm 0.00 in0.0 mm 0.01 in0.3 mm
08:55 PM 62.4°F16.9°C 54.1°F12.3°C 74% 2.0 mph SE3.2 kmh SE 7.0 mph11.3 kmh 30.18 in1022.0 mb 0.01 in0.3 mm 0.00 in0.0 mm 0.01 in0.3 mm
09:00 PM 62.3°F16.8°C 54.0°F12.2°C 74% 1.7 mph SE2.7 kmh SE 6.0 mph9.7 kmh 30.18 in1022.0 mb 0.01 in0.3 mm 0.00 in0.0 mm 0.01 in0.3 mm
09:05 PM 62.1°F16.7°C 54.2°F12.3°C 75% 1.5 mph ESE2.4 kmh ESE 6.0 mph9.7 kmh 30.18 in1022.0 mb 0.01 in0.3 mm 0.00 in0.0 mm 0.01 in0.3 mm
09:10 PM 61.9°F16.6°C 54.4°F12.4°C 76% 1.6 mph ESE2.6 kmh ESE 5.0 mph8.0 kmh 30.18 in1022.0 mb 0.01 in0.3 mm 0.00 in0.0 mm 0.01 in0.3 mm
09:15 PM 61.7°F16.5°C 54.5°F12.5°C 77% 1.3 mph SE2.1 kmh SE 3.0 mph4.8 kmh 30.18 in1022.0 mb 0.02 in0.5 mm 0.12 in3.0 mm 0.02 in0.5 mm
09:20 PM 61.7°F16.5°C 54.5°F12.5°C 77% 1.8 mph ESE2.9 kmh ESE 3.0 mph4.8 kmh 30.18 in1022.0 mb 0.02 in0.5 mm 0.00 in0.0 mm 0.02 in0.5 mm
09:25 PM 61.5°F16.4°C 54.6°F12.6°C 78% 2.5 mph ESE4.0 kmh ESE 4.0 mph6.4 kmh 30.18 in1022.0 mb 0.03 in0.8 mm 0.12 in3.0 mm 0.03 in0.8 mm
09:30 PM 61.2°F16.2°C 54.6°F12.6°C 79% 3.3 mph SE5.3 kmh SE 5.0 mph8.0 kmh 30.18 in1022.0 mb 0.03 in0.8 mm 0.00 in0.0 mm 0.03 in0.8 mm
09:35 PM 61.0°F16.1°C 54.8°F12.7°C 80% 3.3 mph SE5.3 kmh SE 7.0 mph11.3 kmh 30.18 in1022.0 mb 0.03 in0.8 mm 0.00 in0.0 mm 0.03 in0.8 mm
09:40 PM 60.7°F15.9°C 54.8°F12.7°C 81% 2.1 mph SE3.4 kmh SE 7.0 mph11.3 kmh 30.18 in1022.0 mb 0.04 in1.0 mm 0.12 in3.0 mm 0.04 in1.0 mm
09:45 PM 60.3°F15.7°C 55.1°F12.8°C 83% 1.5 mph SE2.4 kmh SE 7.0 mph11.3 kmh 30.18 in1022.0 mb 0.03 in0.8 mm 0.00 in0.0 mm 0.04 in1.0 mm
09:50 PM 60.0°F15.6°C 55.2°F12.9°C 84% 1.3 mph SE2.1 kmh SE 7.0 mph11.3 kmh 30.18 in1022.0 mb 0.03 in0.8 mm 0.00 in0.0 mm 0.04 in1.0 mm
09:55 PM 59.7°F15.4°C 55.2°F12.9°C 85% 1.2 mph SSE1.9 kmh SSE 6.0 mph9.7 kmh 30.18 in1022.0 mb 0.03 in0.8 mm 0.00 in0.0 mm 0.04 in1.0 mm
10:00 PM 59.5°F15.3°C 55.3°F12.9°C 86% Calm Calm 3.0 mph4.8 kmh 30.18 in1022.0 mb 0.04 in1.0 mm 0.01 in0.3 mm 0.05 in1.3 mm
10:05 PM 59.2°F15.1°C 55.3°F12.9°C 87% 1.0 mph SW1.6 kmh SW 2.0 mph3.2 kmh 30.18 in1022.0 mb 0.04 in1.0 mm 0.00 in0.0 mm 0.05 in1.3 mm
10:10 PM 58.9°F14.9°C 55.6°F13.1°C 89% 1.5 mph SW2.4 kmh SW 3.0 mph4.8 kmh 30.18 in1022.0 mb 0.04 in1.0 mm 0.00 in0.0 mm 0.05 in1.3 mm
10:15 PM 58.7°F14.8°C 55.7°F13.2°C 90% 1.4 mph SW2.3 kmh SW 3.0 mph4.8 kmh 30.18 in1022.0 mb 0.03 in0.8 mm 0.00 in0.0 mm 0.05 in1.3 mm
10:20 PM 58.6°F14.8°C 55.9°F13.3°C 91% 1.0 mph SW1.6 kmh SW 3.0 mph4.8 kmh 30.18 in1022.0 mb 0.03 in0.8 mm 0.00 in0.0 mm 0.05 in1.3 mm
10:25 PM 58.5°F14.7°C 56.1°F13.4°C 92% 1.0 mph SW1.6 kmh SW 3.0 mph4.8 kmh 30.18 in1022.0 mb 0.02 in0.5 mm 0.00 in0.0 mm 0.05 in1.3 mm
10:30 PM 58.4°F14.7°C 56.0°F13.3°C 92% 1.2 mph WSW1.9 kmh WSW 3.0 mph4.8 kmh 30.18 in1022.0 mb 0.02 in0.5 mm 0.00 in0.0 mm 0.05 in1.3 mm
10:35 PM 58.4°F14.7°C 56.0°F13.3°C 92% 1.8 mph W2.9 kmh W 4.0 mph6.4 kmh 30.18 in1022.0 mb 0.03 in0.8 mm 0.12 in3.0 mm 0.06 in1.5 mm
10:40 PM 58.5°F14.7°C 56.4°F13.6°C 93% 1.0 mph W1.6 kmh W 4.0 mph6.4 kmh 30.18 in1022.0 mb 0.02 in0.5 mm 0.00 in0.0 mm 0.06 in1.5 mm
10:45 PM 58.4°F14.7°C 56.3°F13.5°C 93% Calm Calm 4.0 mph6.4 kmh 30.17 in1021.7 mb 0.03 in0.8 mm 0.12 in3.0 mm 0.07 in1.8 mm
10:51 PM 58.4°F14.7°C 56.3°F13.5°C 93% Calm Calm 4.0 mph6.4 kmh 30.17 in1021.7 mb 0.03 in0.8 mm 0.00 in0.0 mm 0.07 in1.8 mm
10:56 PM 58.4°F14.7°C 56.3°F13.5°C 93% 1.0 mph WSW1.6 kmh WSW 3.0 mph4.8 kmh 30.17 in1021.7 mb 0.03 in0.8 mm 0.00 in0.0 mm 0.07 in1.8 mm
11:01 PM 58.4°F14.7°C 56.4°F13.6°C 93% 1.1 mph SW1.8 kmh SW 2.0 mph3.2 kmh 30.17 in1021.7 mb 0.02 in0.5 mm 0.00 in0.0 mm 0.07 in1.8 mm
11:05 PM 58.4°F14.7°C 56.4°F13.6°C 93% 1.2 mph SE1.9 kmh SE 2.0 mph3.2 kmh 30.17 in1021.7 mb 0.02 in0.5 mm 0.00 in0.0 mm 0.07 in1.8 mm
11:11 PM 58.4°F14.7°C 56.4°F13.6°C 93% 1.3 mph SE2.1 kmh SE 3.0 mph4.8 kmh 30.17 in1021.7 mb 0.02 in0.5 mm 0.00 in0.0 mm 0.07 in1.8 mm
11:16 PM 58.4°F14.7°C 56.4°F13.6°C 93% 1.4 mph SE2.3 kmh SE 4.0 mph6.4 kmh 30.17 in1021.7 mb 0.02 in0.5 mm 0.00 in0.0 mm 0.07 in1.8 mm
11:21 PM 58.4°F14.7°C 56.4°F13.6°C 93% Calm Calm 5.0 mph8.0 kmh 30.17 in1021.7 mb 0.02 in0.5 mm 0.00 in0.0 mm 0.07 in1.8 mm
11:26 PM 58.5°F14.7°C 56.4°F13.6°C 93% 1.0 mph SE1.6 kmh SE 5.0 mph8.0 kmh 30.17 in1021.7 mb 0.02 in0.5 mm 0.00 in0.0 mm 0.07 in1.8 mm
11:31 PM 58.5°F14.7°C 56.4°F13.6°C 93% 1.0 mph SSE1.6 kmh SSE 5.0 mph8.0 kmh 30.17 in1021.7 mb 0.03 in0.8 mm 0.12 in3.0 mm 0.01 in0.3 mm
11:36 PM 58.5°F14.7°C 56.4°F13.6°C 93% 1.2 mph SE1.9 kmh SE 5.0 mph8.0 kmh 30.17 in1021.7 mb 0.02 in0.5 mm 0.00 in0.0 mm 0.01 in0.3 mm
11:41 PM 58.5°F14.7°C 56.4°F13.6°C 93% 1.6 mph SE2.6 kmh SE 4.0 mph6.4 kmh 30.17 in1021.7 mb 0.02 in0.5 mm 0.00 in0.0 mm 0.01 in0.3 mm
11:46 PM 58.4°F14.7°C 56.3°F13.5°C 93% 1.2 mph SE1.9 kmh SE 4.0 mph6.4 kmh 30.17 in1021.7 mb 0.01 in0.3 mm 0.00 in0.0 mm 0.01 in0.3 mm
11:51 PM 58.4°F14.7°C 56.3°F13.5°C 93% 2.1 mph SE3.4 kmh SE 4.0 mph6.4 kmh 30.17 in1021.7 mb 0.02 in0.5 mm 0.12 in3.0 mm 0.02 in0.5 mm
11:56 PM 58.4°F14.7°C 56.3°F13.5°C 93% 1.9 mph SSE3.1 kmh SSE 4.0 mph6.4 kmh 30.17 in1021.7 mb 0.02 in0.5 mm 0.00 in0.0 mm 0.02 in0.5 mm